Time;durP1;ratioP1;P1;durP2;ratioP2;P2;SDS_P1;SDS_P2;PMS_P1;PMS_P2;Temp;Humidity;BMP_temperature;BMP_pressure;BME280_temperature;BME280_humidity;BME280_pressure;Samples;Min_cycle;Max_cycle;Signal;HPM_P1;HPM_P2
2023/02/09 00:00:15;;;;;;;30.43;18.83;;;;;;;;;;5098439;28;20474;-76
2023/02/09 00:02:43;;;;;;;30.33;17.77;;;;;;;;;;5098267;28;20474;-76
2023/02/09 00:05:11;;;;;;;31.07;18.70;;;;;;;;;;5097669;28;20961;-76
2023/02/09 00:07:39;;;;;;;32.67;20.00;;;;;;;;;;5098097;28;20443;-76
2023/02/09 00:10:07;;;;;;;35.57;21.07;;;;;;;;;;5098385;28;20470;-76
2023/02/09 00:15:23;;;;;;;32.17;20.63;;;;;;;;;;5097969;28;20844;-76
2023/02/09 00:17:51;;;;;;;38.37;20.40;;;;;;;;;;5096512;28;20875;-76
2023/02/09 00:20:19;;;;;;;31.63;19.27;;;;;;;;;;5097840;28;20441;-76
2023/02/09 00:22:47;;;;;;;35.70;19.80;;;;;;;;;;5097833;28;20467;-76
2023/02/09 00:25:15;;;;;;;31.33;19.53;;;;;;;;;;5097154;28;20479;-76
2023/02/09 00:27:43;;;;;;;35.23;19.70;;;;;;;;;;5097799;28;20664;-75
2023/02/09 00:30:12;;;;;;;34.40;19.20;;;;;;;;;;5097792;28;21026;-76
2023/02/09 00:32:41;;;;;;;31.07;19.00;;;;;;;;;;5097754;28;20515;-76
2023/02/09 00:35:09;;;;;;;34.10;20.03;;;;;;;;;;5097569;28;20863;-76
2023/02/09 00:37:37;;;;;;;33.80;20.23;;;;;;;;;;5097442;28;20975;-76
2023/02/09 00:40:06;;;;;;;35.60;19.80;;;;;;;;;;5097991;28;20450;-76
2023/02/09 00:42:34;;;;;;;37.40;22.63;;;;;;;;;;5097647;28;20442;-76
2023/02/09 00:45:05;;;;;;;29.87;18.60;;;;;;;;;;5097577;28;20857;-75
2023/02/09 00:47:33;;;;;;;31.93;19.70;;;;;;;;;;5097728;28;20501;-76
2023/02/09 00:50:05;;;;;;;32.27;18.83;;;;;;;;;;5097795;28;20447;-75
2023/02/09 00:52:33;;;;;;;30.77;18.53;;;;;;;;;;5097607;28;20431;-76
2023/02/09 00:55:01;;;;;;;27.93;17.90;;;;;;;;;;5084991;28;20879;-76
2023/02/09 00:57:29;;;;;;;31.73;18.93;;;;;;;;;;5096629;28;20435;-76
2023/02/09 00:59:57;;;;;;;33.40;18.93;;;;;;;;;;5097627;28;20490;-76
2023/02/09 01:02:25;;;;;;;32.20;18.63;;;;;;;;;;5097590;28;20520;-76
2023/02/09 01:04:53;;;;;;;30.10;18.87;;;;;;;;;;5097518;28;20490;-75
2023/02/09 01:07:23;;;;;;;30.37;19.00;;;;;;;;;;5097261;28;20443;-76
2023/02/09 01:09:51;;;;;;;27.63;18.60;;;;;;;;;;5097738;28;20504;-76
2023/02/09 01:12:19;;;;;;;32.23;19.17;;;;;;;;;;5097506;28;20508;-76
2023/02/09 01:14:47;;;;;;;32.63;18.50;;;;;;;;;;5096395;28;20946;-76
2023/02/09 01:17:15;;;;;;;33.27;19.53;;;;;;;;;;5093655;28;20456;-75
2023/02/09 01:19:43;;;;;;;31.20;18.17;;;;;;;;;;5097424;28;20443;-76
2023/02/09 01:22:11;;;;;;;32.80;19.33;;;;;;;;;;5097085;28;20439;-76
2023/02/09 01:24:41;;;;;;;36.80;17.97;;;;;;;;;;5097128;28;20483;-76
2023/02/09 01:27:09;;;;;;;31.70;19.53;;;;;;;;;;5097357;28;20443;-75
2023/02/09 01:29:38;;;;;;;36.37;19.00;;;;;;;;;;5097501;28;20453;-76
2023/02/09 01:32:06;;;;;;;33.37;17.93;;;;;;;;;;5097274;28;20439;-76
2023/02/09 01:34:34;;;;;;;36.70;19.57;;;;;;;;;;5084094;28;20509;-75
2023/02/09 01:37:05;;;;;;;28.13;18.53;;;;;;;;;;5096677;28;20518;-75
2023/02/09 01:39:33;;;;;;;28.27;18.30;;;;;;;;;;5097908;28;20479;-76
2023/02/09 01:42:03;;;;;;;30.07;18.03;;;;;;;;;;5101007;28;20459;-76
2023/02/09 01:44:58;;;;;;;28.23;19.50;;;;;;;;;;5093632;28;20909;-76
2023/02/09 01:47:26;;;;;;;32.57;18.37;;;;;;;;;;5054878;28;20451;-75
2023/02/09 01:49:54;;;;;;;26.47;17.77;;;;;;;;;;5100725;28;20450;-75
2023/02/09 01:52:25;;;;;;;29.37;18.33;;;;;;;;;;5100309;28;20447;-76
2023/02/09 01:54:55;;;;;;;33.73;18.80;;;;;;;;;;5100658;28;20442;-76
2023/02/09 01:57:26;;;;;;;30.70;17.70;;;;;;;;;;5101172;28;20447;-76
2023/02/09 01:59:57;;;;;;;32.57;17.27;;;;;;;;;;5100431;28;20439;-76
2023/02/09 02:02:25;;;;;;;31.33;17.70;;;;;;;;;;5100989;28;20455;-76
2023/02/09 02:04:53;;;;;;;30.63;17.53;;;;;;;;;;5100764;28;20479;-75
2023/02/09 02:07:27;;;;;;;28.23;17.53;;;;;;;;;;5099985;28;20471;-76
2023/02/09 02:09:55;;;;;;;26.40;17.67;;;;;;;;;;5100450;28;20472;-76
2023/02/09 02:12:24;;;;;;;26.03;16.80;;;;;;;;;;5100089;28;20789;-76
2023/02/09 02:14:52;;;;;;;32.00;18.20;;;;;;;;;;5099817;28;20455;-76
2023/02/09 02:17:27;;;;;;;27.53;15.80;;;;;;;;;;5095288;28;20499;-76
2023/02/09 02:20:10;;;;;;;26.43;16.73;;;;;;;;;;5099930;28;20795;-76
2023/02/09 02:22:50;;;;;;;28.93;16.00;;;;;;;;;;5097651;28;20452;-75
2023/02/09 02:25:33;;;;;;;27.83;16.90;;;;;;;;;;5100304;28;20479;-76
2023/02/09 02:28:10;;;;;;;22.07;14.67;;;;;;;;;;5100197;28;20450;-75
2023/02/09 02:30:43;;;;;;;28.73;16.63;;;;;;;;;;5100091;28;20452;-75
2023/02/09 02:33:17;;;;;;;29.67;17.10;;;;;;;;;;5094157;28;20473;-75
2023/02/09 02:35:50;;;;;;;30.73;15.03;;;;;;;;;;5092571;28;20475;-76
2023/02/09 02:38:21;;;;;;;25.53;15.63;;;;;;;;;;5099787;28;20471;-75
2023/02/09 02:40:54;;;;;;;26.97;15.93;;;;;;;;;;5099960;28;20447;-76
2023/02/09 02:43:25;;;;;;;28.33;16.13;;;;;;;;;;5099616;28;20495;-76
2023/02/09 02:45:56;;;;;;;31.93;16.47;;;;;;;;;;5095533;28;20978;-76
2023/02/09 02:48:29;;;;;;;26.80;16.27;;;;;;;;;;5099568;28;20447;-76
2023/02/09 02:51:00;;;;;;;30.23;17.20;;;;;;;;;;5092623;28;20459;-76
2023/02/09 02:53:30;;;;;;;24.47;15.87;;;;;;;;;;5085332;28;20472;-75
2023/02/09 02:56:02;;;;;;;22.17;15.30;;;;;;;;;;5099656;28;20471;-75
2023/02/09 02:58:31;;;;;;;31.90;16.80;;;;;;;;;;5099583;28;20482;-76
2023/02/09 03:01:01;;;;;;;32.50;17.97;;;;;;;;;;5099615;28;20436;-76
2023/02/09 03:03:34;;;;;;;26.73;15.40;;;;;;;;;;5099115;28;20463;-75
2023/02/09 03:06:04;;;;;;;29.80;15.80;;;;;;;;;;5099398;28;20513;-75
2023/02/09 03:08:45;;;;;;;26.70;15.70;;;;;;;;;;5098868;28;20440;-75
2023/02/09 03:11:13;;;;;;;28.40;16.50;;;;;;;;;;5099118;28;20447;-76
2023/02/09 03:13:49;;;;;;;29.47;15.60;;;;;;;;;;5099119;28;20451;-76
2023/02/09 03:16:25;;;;;;;25.50;15.50;;;;;;;;;;5093581;28;20440;-76
2023/02/09 03:19:02;;;;;;;21.87;14.33;;;;;;;;;;5098966;28;20447;-77
2023/02/09 03:21:36;;;;;;;24.27;16.03;;;;;;;;;;5099055;28;20435;-77
2023/02/09 03:24:06;;;;;;;28.23;16.10;;;;;;;;;;5097598;28;20518;-77
2023/02/09 03:26:38;;;;;;;25.60;14.30;;;;;;;;;;5099018;28;20485;-77
2023/02/09 03:29:08;;;;;;;25.40;15.63;;;;;;;;;;5098645;28;20508;-77
2023/02/09 03:31:36;;;;;;;23.67;14.50;;;;;;;;;;5099020;28;20443;-76
2023/02/09 03:34:06;;;;;;;23.80;15.27;;;;;;;;;;5098508;28;20822;-76
2023/02/09 03:36:38;;;;;;;25.50;14.43;;;;;;;;;;5098847;28;20475;-76
2023/02/09 03:39:05;;;;;;;24.07;15.20;;;;;;;;;;5098245;28;20947;-76
2023/02/09 03:41:33;;;;;;;28.27;15.23;;;;;;;;;;5098490;28;20472;-76
2023/02/09 03:46:47;;;;;;;26.03;16.40;;;;;;;;;;5098292;28;20479;-76
2023/02/09 03:49:17;;;;;;;23.10;15.63;;;;;;;;;;5098458;28;20509;-75
2023/02/09 03:51:45;;;;;;;25.87;15.80;;;;;;;;;;5098087;28;20890;-76
2023/02/09 03:54:13;;;;;;;25.37;14.53;;;;;;;;;;5083999;28;20529;-76
2023/02/09 03:56:41;;;;;;;27.10;15.27;;;;;;;;;;5098532;28;20478;-76
2023/02/09 03:59:09;;;;;;;31.57;15.20;;;;;;;;;;5098333;28;20479;-76
2023/02/09 04:01:37;;;;;;;27.37;15.73;;;;;;;;;;5098473;28;20442;-76
2023/02/09 04:04:05;;;;;;;27.10;15.83;;;;;;;;;;5097909;28;20467;-76
2023/02/09 04:06:35;;;;;;;23.77;15.40;;;;;;;;;;5097846;28;20493;-75
2023/02/09 04:09:04;;;;;;;24.47;14.83;;;;;;;;;;5098166;28;20442;-76
2023/02/09 04:11:32;;;;;;;21.80;14.00;;;;;;;;;;5098024;28;20820;-75
2023/02/09 04:14:00;;;;;;;26.97;16.40;;;;;;;;;;5098257;28;20463;-75
2023/02/09 04:16:28;;;;;;;25.50;15.47;;;;;;;;;;5091234;28;20452;-75
2023/02/09 04:18:56;;;;;;;24.63;15.00;;;;;;;;;;5098228;28;20450;-75
2023/02/09 04:21:24;;;;;;;31.03;16.80;;;;;;;;;;5097993;28;20497;-75
2023/02/09 04:23:53;;;;;;;24.47;15.53;;;;;;;;;;5096684;28;20475;-76
2023/02/09 04:26:22;;;;;;;27.47;15.80;;;;;;;;;;5097777;28;21081;-75
2023/02/09 04:28:50;;;;;;;26.87;14.73;;;;;;;;;;5098431;28;20443;-75
2023/02/09 04:31:18;;;;;;;21.90;15.13;;;;;;;;;;5097757;28;20448;-76
2023/02/09 04:33:46;;;;;;;22.67;14.67;;;;;;;;;;5098068;28;20459;-76
2023/02/09 04:36:14;;;;;;;28.87;16.20;;;;;;;;;;5097409;28;20476;-75
2023/02/09 04:38:42;;;;;;;24.43;15.07;;;;;;;;;;5097462;28;20443;-75
2023/02/09 04:41:11;;;;;;;28.70;16.13;;;;;;;;;;5097625;28;20471;-74
2023/02/09 04:43:39;;;;;;;25.30;16.73;;;;;;;;;;5097854;28;20463;-76
2023/02/09 04:46:11;;;;;;;22.00;14.63;;;;;;;;;;5097261;28;20479;-74
2023/02/09 04:48:39;;;;;;;24.23;14.70;;;;;;;;;;5096552;28;20462;-75
2023/02/09 04:51:07;;;;;;;25.73;15.13;;;;;;;;;;5096096;28;20508;-74
2023/02/09 04:53:35;;;;;;;27.23;14.67;;;;;;;;;;5094519;28;20471;-74
2023/02/09 04:56:03;;;;;;;23.17;14.87;;;;;;;;;;5096204;28;21167;-74
2023/02/09 05:01:22;;;;;;;24.73;14.70;;;;;;;;;;5095024;28;20799;-75
2023/02/09 05:03:51;;;;;;;26.67;15.10;;;;;;;;;;5087646;28;20613;-75
2023/02/09 05:06:19;;;;;;;22.57;14.13;;;;;;;;;;5091927;28;20505;-75
2023/02/09 05:08:47;;;;;;;24.37;16.23;;;;;;;;;;5093562;28;20438;-74
2023/02/09 05:11:15;;;;;;;22.67;14.90;;;;;;;;;;5091512;28;20521;-75
2023/02/09 05:13:45;;;;;;;25.67;16.67;;;;;;;;;;5096569;28;20459;-74
2023/02/09 05:16:16;;;;;;;27.47;14.47;;;;;;;;;;5097384;28;20936;-75
2023/02/09 05:18:44;;;;;;;25.73;15.87;;;;;;;;;;5097861;28;20467;-74
2023/02/09 05:21:13;;;;;;;27.57;16.37;;;;;;;;;;5096902;28;20795;-75
2023/02/09 05:23:41;;;;;;;25.27;15.63;;;;;;;;;;5099886;28;20455;-75
2023/02/09 05:26:10;;;;;;;29.40;16.37;;;;;;;;;;5099821;28;20479;-73
2023/02/09 05:28:37;;;;;;;25.80;15.53;;;;;;;;;;5101467;28;20453;-72
2023/02/09 05:31:07;;;;;;;23.97;15.57;;;;;;;;;;5101116;28;20470;-72
2023/02/09 05:33:35;;;;;;;29.07;14.93;;;;;;;;;;5101163;28;20466;-72
2023/02/09 05:36:07;;;;;;;22.03;15.20;;;;;;;;;;5100732;28;20982;-72
2023/02/09 05:38:36;;;;;;;29.03;14.93;;;;;;;;;;5101033;28;20509;-72
2023/02/09 05:41:04;;;;;;;25.80;16.50;;;;;;;;;;5100763;28;20880;-72
2023/02/09 05:43:34;;;;;;;21.83;14.63;;;;;;;;;;5100924;28;20460;-72
2023/02/09 05:46:02;;;;;;;28.97;15.63;;;;;;;;;;5100917;28;20483;-72
2023/02/09 05:48:32;;;;;;;25.20;15.03;;;;;;;;;;5094283;28;21040;-73
2023/02/09 05:51:00;;;;;;;25.50;14.87;;;;;;;;;;5093826;28;20444;-73
2023/02/09 05:53:28;;;;;;;23.13;15.20;;;;;;;;;;5086682;28;20474;-73
2023/02/09 05:55:56;;;;;;;26.50;14.27;;;;;;;;;;5100568;28;20475;-74
2023/02/09 05:58:24;;;;;;;26.10;14.77;;;;;;;;;;5100818;28;20450;-74
2023/02/09 06:00:52;;;;;;;22.17;14.00;;;;;;;;;;5100632;28;20479;-72
2023/02/09 06:03:20;;;;;;;26.77;13.93;;;;;;;;;;5100588;28;20467;-72
2023/02/09 06:05:50;;;;;;;30.63;15.63;;;;;;;;;;5100429;28;20444;-73
2023/02/09 06:08:18;;;;;;;27.23;16.10;;;;;;;;;;5100048;28;20443;-71
2023/02/09 06:10:46;;;;;;;24.27;14.77;;;;;;;;;;5100218;28;20960;-72
2023/02/09 06:13:15;;;;;;;25.37;14.90;;;;;;;;;;5097823;28;20849;-73
2023/02/09 06:15:43;;;;;;;23.80;14.70;;;;;;;;;;5095596;28;20480;-73
2023/02/09 06:18:11;;;;;;;25.33;15.87;;;;;;;;;;5088707;28;20436;-72
2023/02/09 06:20:39;;;;;;;27.37;14.73;;;;;;;;;;5099562;28;20997;-73
2023/02/09 06:23:09;;;;;;;26.17;16.47;;;;;;;;;;5098113;28;20656;-73
2023/02/09 06:25:38;;;;;;;25.07;14.80;;;;;;;;;;5097571;28;20460;-73
2023/02/09 06:28:06;;;;;;;27.43;14.20;;;;;;;;;;5097749;28;20511;-73
2023/02/09 06:30:34;;;;;;;26.57;15.20;;;;;;;;;;5097732;28;20521;-73
2023/02/09 06:33:02;;;;;;;30.43;15.73;;;;;;;;;;5096747;28;20484;-77
2023/02/09 06:35:30;;;;;;;23.23;15.07;;;;;;;;;;5095412;28;20582;-75
2023/02/09 06:37:59;;;;;;;25.33;15.53;;;;;;;;;;5095089;28;20456;-76
2023/02/09 06:40:28;;;;;;;25.30;15.20;;;;;;;;;;5093984;28;20538;-76
2023/02/09 06:42:57;;;;;;;26.43;15.77;;;;;;;;;;5092178;28;20987;-76
2023/02/09 06:45:25;;;;;;;28.33;14.70;;;;;;;;;;5100596;28;20935;-75
2023/02/09 06:47:53;;;;;;;26.30;15.00;;;;;;;;;;5098415;28;20833;-75
2023/02/09 06:50:21;;;;;;;23.00;15.53;;;;;;;;;;5097534;28;20447;-75
2023/02/09 06:52:49;;;;;;;27.33;14.93;;;;;;;;;;5099422;28;20463;-73
2023/02/09 06:55:17;;;;;;;20.67;14.40;;;;;;;;;;5099552;28;20440;-72
2023/02/09 06:57:46;;;;;;;23.40;16.07;;;;;;;;;;5099290;28;20473;-74
2023/02/09 07:00:15;;;;;;;28.90;16.13;;;;;;;;;;5098420;28;21006;-74
2023/02/09 07:02:43;;;;;;;25.30;14.80;;;;;;;;;;5093145;28;20916;-75
2023/02/09 07:05:11;;;;;;;22.97;15.23;;;;;;;;;;5096182;28;20489;-74
2023/02/09 07:07:42;;;;;;;26.53;16.10;;;;;;;;;;5099132;28;20528;-75
2023/02/09 07:10:12;;;;;;;29.13;14.97;;;;;;;;;;5099076;28;20444;-75
2023/02/09 07:12:42;;;;;;;25.40;15.60;;;;;;;;;;5097109;28;20521;-75
2023/02/09 07:15:12;;;;;;;29.83;15.70;;;;;;;;;;5098695;28;21048;-75
2023/02/09 07:17:41;;;;;;;22.03;12.77;;;;;;;;;;5098705;28;20547;-74
2023/02/09 07:20:09;;;;;;;23.37;13.23;;;;;;;;;;5095951;28;21562;-75
2023/02/09 07:22:37;;;;;;;24.43;13.03;;;;;;;;;;5090407;28;20471;-75
2023/02/09 07:25:06;;;;;;;20.27;13.43;;;;;;;;;;5098568;28;21141;-75
2023/02/09 07:27:34;;;;;;;23.30;13.53;;;;;;;;;;5098476;28;20479;-73
2023/02/09 07:30:02;;;;;;;28.10;14.20;;;;;;;;;;5098661;28;20450;-75
2023/02/09 07:32:32;;;;;;;21.13;14.10;;;;;;;;;;5098687;28;20475;-74
2023/02/09 07:35:00;;;;;;;29.37;15.00;;;;;;;;;;5098229;28;20452;-74
2023/02/09 07:37:28;;;;;;;21.23;14.47;;;;;;;;;;5092516;28;20522;-74
2023/02/09 07:39:57;;;;;;;21.93;13.60;;;;;;;;;;5098408;28;20436;-75
2023/02/09 07:42:25;;;;;;;25.87;14.67;;;;;;;;;;5096386;28;20538;-75
2023/02/09 07:44:53;;;;;;;27.20;14.67;;;;;;;;;;5098537;28;20446;-75
2023/02/09 07:47:21;;;;;;;26.37;15.50;;;;;;;;;;5098156;28;20562;-75
2023/02/09 07:49:50;;;;;;;21.00;13.20;;;;;;;;;;5098400;28;20444;-76
2023/02/09 07:52:19;;;;;;;28.37;14.73;;;;;;;;;;5097848;28;20471;-75
2023/02/09 07:54:49;;;;;;;32.37;15.17;;;;;;;;;;5091102;28;20448;-76
2023/02/09 07:57:17;;;;;;;31.77;14.77;;;;;;;;;;5092148;28;20441;-75
2023/02/09 07:59:45;;;;;;;28.47;15.83;;;;;;;;;;5093130;28;20470;-75
2023/02/09 08:02:16;;;;;;;24.87;14.53;;;;;;;;;;5098234;28;20530;-75
2023/02/09 08:04:44;;;;;;;28.57;15.43;;;;;;;;;;5097707;28;21970;-75
2023/02/09 08:07:14;;;;;;;31.57;17.07;;;;;;;;;;5097917;28;20446;-76
2023/02/09 08:09:45;;;;;;;31.13;16.27;;;;;;;;;;5098138;28;20439;-76
2023/02/09 08:12:13;;;;;;;31.17;16.27;;;;;;;;;;5085653;28;21026;-75
2023/02/09 08:14:46;;;;;;;26.40;14.97;;;;;;;;;;5097170;28;20460;-76
2023/02/09 08:17:24;;;;;;;28.80;15.40;;;;;;;;;;5096394;28;20480;-75
2023/02/09 08:19:53;;;;;;;27.53;14.50;;;;;;;;;;5096485;28;20534;-76
2023/02/09 08:22:24;;;;;;;27.93;15.47;;;;;;;;;;5097521;28;20443;-75
2023/02/09 08:24:52;;;;;;;26.53;14.80;;;;;;;;;;5096106;28;20478;-75
2023/02/09 08:27:22;;;;;;;26.07;14.27;;;;;;;;;;5085907;28;20478;-75
2023/02/09 08:29:50;;;;;;;21.03;14.07;;;;;;;;;;5097002;28;20811;-75
2023/02/09 08:32:18;;;;;;;27.07;14.13;;;;;;;;;;5097569;28;20809;-75
2023/02/09 08:34:53;;;;;;;31.70;17.23;;;;;;;;;;5094147;28;20534;-76
2023/02/09 08:37:21;;;;;;;26.13;15.23;;;;;;;;;;5090905;28;20511;-75
2023/02/09 08:39:50;;;;;;;30.93;15.73;;;;;;;;;;5097074;28;20962;-75
2023/02/09 08:42:18;;;;;;;29.50;16.57;;;;;;;;;;5097351;28;20436;-75
2023/02/09 08:44:46;;;;;;;26.60;16.40;;;;;;;;;;5097510;28;20436;-76
2023/02/09 08:47:15;;;;;;;23.37;15.50;;;;;;;;;;5096964;28;20475;-76
2023/02/09 08:49:43;;;;;;;25.47;14.97;;;;;;;;;;5100288;28;20990;-76
2023/02/09 08:52:11;;;;;;;23.43;15.90;;;;;;;;;;5100971;28;20443;-74
2023/02/09 08:54:39;;;;;;;31.57;14.63;;;;;;;;;;5100260;28;20989;-73
2023/02/09 08:57:09;;;;;;;24.67;14.63;;;;;;;;;;5095217;28;20483;-75
2023/02/09 08:59:37;;;;;;;21.43;14.53;;;;;;;;;;5101107;28;20439;-74
2023/02/09 09:02:05;;;;;;;23.53;14.97;;;;;;;;;;5097870;28;20931;-77
2023/02/09 09:04:35;;;;;;;30.07;16.10;;;;;;;;;;5090856;28;20476;-76
2023/02/09 09:07:06;;;;;;;29.50;15.00;;;;;;;;;;5099301;28;20455;-76
2023/02/09 09:09:35;;;;;;;23.93;15.73;;;;;;;;;;5098006;28;20514;-76
2023/02/09 09:12:03;;;;;;;26.10;15.23;;;;;;;;;;5099237;28;20447;-75
2023/02/09 09:14:33;;;;;;;29.03;14.83;;;;;;;;;;5099710;28;20501;-76
2023/02/09 09:17:01;;;;;;;31.87;16.27;;;;;;;;;;5090473;28;20448;-76
2023/02/09 09:19:29;;;;;;;26.67;15.13;;;;;;;;;;5094948;28;20581;-76
2023/02/09 09:21:59;;;;;;;24.90;14.00;;;;;;;;;;5099633;28;20471;-78
2023/02/09 09:24:28;;;;;;;22.10;14.10;;;;;;;;;;5102112;28;20842;-76
2023/02/09 09:26:56;;;;;;;25.40;13.13;;;;;;;;;;5101397;28;20444;-76
2023/02/09 09:29:24;;;;;;;21.30;14.00;;;;;;;;;;5096928;28;20479;-76
2023/02/09 09:31:54;;;;;;;21.33;14.93;;;;;;;;;;5093347;28;20452;-76
2023/02/09 09:34:22;;;;;;;22.00;15.00;;;;;;;;;;5100973;28;20482;-76
2023/02/09 09:36:50;;;;;;;26.20;15.93;;;;;;;;;;5092882;28;20472;-76
2023/02/09 09:39:18;;;;;;;25.23;15.17;;;;;;;;;;5100914;28;20993;-76
2023/02/09 09:41:47;;;;;;;22.27;14.27;;;;;;;;;;5100697;28;20520;-76
2023/02/09 09:44:17;;;;;;;22.90;13.10;;;;;;;;;;5100537;28;20467;-76
2023/02/09 09:46:47;;;;;;;26.60;13.70;;;;;;;;;;5100786;28;20447;-76
2023/02/09 09:49:22;;;;;;;19.57;12.20;;;;;;;;;;5094058;28;20479;-76
2023/02/09 09:51:53;;;;;;;27.90;13.10;;;;;;;;;;5100309;28;20443;-76
2023/02/09 09:54:23;;;;;;;20.97;12.47;;;;;;;;;;5088194;28;21019;-76
2023/02/09 09:56:52;;;;;;;25.27;13.70;;;;;;;;;;5099795;28;20870;-76
2023/02/09 09:59:21;;;;;;;23.10;12.83;;;;;;;;;;5099643;28;20506;-76
2023/02/09 10:01:51;;;;;;;25.37;13.43;;;;;;;;;;5100041;28;20443;-76
2023/02/09 10:04:20;;;;;;;22.93;13.07;;;;;;;;;;5100072;28;20470;-77
2023/02/09 10:06:52;;;;;;;20.83;12.13;;;;;;;;;;5100820;28;20853;-76
2023/02/09 10:09:25;;;;;;;21.27;13.57;;;;;;;;;;5100565;28;20574;-76
2023/02/09 10:11:56;;;;;;;21.53;12.40;;;;;;;;;;5097610;28;20446;-76
2023/02/09 10:14:24;;;;;;;23.43;13.10;;;;;;;;;;5092253;28;20544;-76
2023/02/09 10:16:52;;;;;;;19.53;11.90;;;;;;;;;;5091061;28;20456;-77
2023/02/09 10:19:21;;;;;;;20.77;12.90;;;;;;;;;;5100113;28;20443;-77
2023/02/09 10:21:51;;;;;;;18.37;11.73;;;;;;;;;;5099682;28;20440;-76
2023/02/09 10:24:21;;;;;;;22.13;13.70;;;;;;;;;;5099806;28;20467;-77
2023/02/09 10:27:01;;;;;;;19.63;13.47;;;;;;;;;;5099744;28;20850;-77
2023/02/09 10:29:30;;;;;;;23.30;12.90;;;;;;;;;;5093008;28;20562;-76
2023/02/09 10:32:06;;;;;;;24.33;12.50;;;;;;;;;;5097968;28;20982;-76
2023/02/09 10:34:41;;;;;;;24.33;14.10;;;;;;;;;;5094700;28;20509;-77
2023/02/09 10:37:25;;;;;;;22.53;13.50;;;;;;;;;;5099590;28;20482;-77
2023/02/09 10:39:56;;;;;;;20.53;12.20;;;;;;;;;;5100003;28;20518;-76
2023/02/09 10:42:27;;;;;;;21.47;11.43;;;;;;;;;;5099785;28;20443;-76
2023/02/09 10:44:55;;;;;;;21.03;11.00;;;;;;;;;;5096485;28;20479;-75
2023/02/09 10:47:26;;;;;;;18.03;12.17;;;;;;;;;;5099355;28;20503;-75
2023/02/09 10:49:55;;;;;;;19.27;12.10;;;;;;;;;;5099171;28;20570;-72
2023/02/09 10:52:25;;;;;;;24.37;13.40;;;;;;;;;;5098832;28;20443;-74
2023/02/09 10:54:55;;;;;;;24.83;12.13;;;;;;;;;;5099696;28;20497;-75
2023/02/09 10:57:25;;;;;;;22.63;11.83;;;;;;;;;;5096125;28;20500;-75
2023/02/09 10:59:54;;;;;;;19.43;10.83;;;;;;;;;;5095346;28;20947;-71
2023/02/09 11:02:30;;;;;;;15.00;12.20;;;;;;;;;;5098606;28;20476;-74
2023/02/09 11:04:58;;;;;;;20.73;12.60;;;;;;;;;;5096978;28;20201;-69
2023/02/09 11:07:32;;;;;;;21.17;12.53;;;;;;;;;;5082121;28;20205;-69
2023/02/09 11:10:02;;;;;;;16.13;11.10;;;;;;;;;;5080058;28;20250;-71
2023/02/09 11:12:30;;;;;;;22.00;13.40;;;;;;;;;;5078761;28;20201;-70
2023/02/09 11:14:58;;;;;;;21.90;13.03;;;;;;;;;;5079944;28;20456;-71
2023/02/09 11:17:28;;;;;;;27.93;13.77;;;;;;;;;;5095422;28;20446;-73
2023/02/09 11:20:15;;;;;;;28.67;14.17;;;;;;;;;;5098797;28;20440;-72
2023/02/09 11:22:50;;;;;;;20.07;12.40;;;;;;;;;;5098723;28;20455;-72
2023/02/09 11:25:21;;;;;;;17.67;11.63;;;;;;;;;;5098972;28;20443;-73
2023/02/09 11:27:55;;;;;;;22.20;11.53;;;;;;;;;;5098632;28;20485;-71
2023/02/09 11:30:44;;;;;;;16.73;10.47;;;;;;;;;;5096407;28;20475;-72
2023/02/09 11:33:17;;;;;;;14.33;10.40;;;;;;;;;;5098307;28;20463;-73
2023/02/09 11:35:48;;;;;;;17.90;10.47;;;;;;;;;;5096457;28;20497;-71
2023/02/09 11:38:19;;;;;;;13.73;9.10;;;;;;;;;;5098013;28;20847;-68
2023/02/09 11:40:49;;;;;;;11.87;9.07;;;;;;;;;;5098466;28;20457;-72
2023/02/09 11:43:20;;;;;;;14.33;9.73;;;;;;;;;;5098261;28;20495;-72
2023/02/09 11:45:49;;;;;;;14.17;9.87;;;;;;;;;;5098185;28;20513;-71
2023/02/09 11:48:20;;;;;;;17.00;8.97;;;;;;;;;;5092918;28;20480;-71
2023/02/09 11:50:53;;;;;;;15.57;9.13;;;;;;;;;;5084649;28;20479;-72
2023/02/09 11:53:28;;;;;;;16.27;8.40;;;;;;;;;;5098039;28;20489;-72
2023/02/09 11:55:57;;;;;;;12.37;8.63;;;;;;;;;;5098175;28;20875;-72
2023/02/09 11:58:30;;;;;;;13.57;8.43;;;;;;;;;;5098357;28;20450;-72
2023/02/09 12:01:01;;;;;;;18.87;9.67;;;;;;;;;;5098007;28;20468;-71
2023/02/09 12:03:45;;;;;;;18.67;8.87;;;;;;;;;;5094666;28;20514;-72
2023/02/09 12:06:15;;;;;;;18.80;9.13;;;;;;;;;;5085898;28;20704;-72
2023/02/09 12:08:50;;;;;;;13.03;9.17;;;;;;;;;;5081997;28;20818;-72
2023/02/09 12:11:23;;;;;;;16.67;9.10;;;;;;;;;;5098137;28;20228;-72
2023/02/09 12:13:57;;;;;;;14.27;9.47;;;;;;;;;;5097709;28;20253;-71
2023/02/09 12:16:27;;;;;;;14.53;8.47;;;;;;;;;;5097749;28;20248;-72
2023/02/09 12:18:55;;;;;;;14.93;8.53;;;;;;;;;;5097811;28;20211;-71
2023/02/09 12:21:31;;;;;;;13.60;8.90;;;;;;;;;;5097343;28;20219;-72
2023/02/09 12:24:01;;;;;;;16.03;8.67;;;;;;;;;;5097632;28;20257;-71
2023/02/09 12:26:36;;;;;;;14.10;8.03;;;;;;;;;;5097604;28;20233;-71
2023/02/09 12:29:21;;;;;;;16.80;8.13;;;;;;;;;;5097707;28;20204;-72
2023/02/09 12:32:08;;;;;;;12.90;7.57;;;;;;;;;;5097723;28;20247;-71
2023/02/09 12:34:40;;;;;;;13.03;7.23;;;;;;;;;;5083766;28;20228;-72
2023/02/09 12:37:28;;;;;;;12.37;7.10;;;;;;;;;;5084639;28;20498;-72
2023/02/09 12:40:21;;;;;;;11.87;6.93;;;;;;;;;;5097590;28;20284;-72
2023/02/09 12:43:08;;;;;;;9.27;6.83;;;;;;;;;;5088190;28;20292;-72
2023/02/09 12:45:37;;;;;;;12.23;7.30;;;;;;;;;;5095795;28;20198;-72
2023/02/09 12:48:18;;;;;;;12.63;7.13;;;;;;;;;;5097710;28;20202;-72
2023/02/09 12:50:50;;;;;;;11.00;7.37;;;;;;;;;;5097626;28;20315;-72
2023/02/09 12:53:41;;;;;;;13.40;6.70;;;;;;;;;;5097041;28;20650;-72
2023/02/09 12:56:28;;;;;;;10.27;6.50;;;;;;;;;;5097605;28;20443;-72
2023/02/09 12:59:06;;;;;;;11.00;6.30;;;;;;;;;;5097675;28;20444;-71
2023/02/09 13:01:52;;;;;;;9.63;6.67;;;;;;;;;;5097387;28;20806;-72
2023/02/09 13:04:20;;;;;;;10.13;5.60;;;;;;;;;;5097241;28;20468;-72
2023/02/09 13:06:51;;;;;;;9.80;6.17;;;;;;;;;;5096986;28;20599;-72
2023/02/09 13:09:23;;;;;;;15.80;5.83;;;;;;;;;;5097319;28;20890;-72
2023/02/09 13:11:55;;;;;;;9.90;6.80;;;;;;;;;;5095105;28;20225;-72
2023/02/09 13:14:24;;;;;;;10.00;5.70;;;;;;;;;;5084844;28;20816;-72
2023/02/09 13:17:06;;;;;;;9.97;6.07;;;;;;;;;;5097498;28;20455;-72
2023/02/09 13:19:52;;;;;;;9.33;5.83;;;;;;;;;;5097328;28;20448;-72
2023/02/09 13:22:28;;;;;;;9.93;5.97;;;;;;;;;;5096834;28;20206;-72
2023/02/09 13:24:59;;;;;;;9.40;5.50;;;;;;;;;;5097217;28;20232;-72
2023/02/09 13:27:29;;;;;;;11.03;6.87;;;;;;;;;;5097122;28;20259;-72
2023/02/09 13:29:58;;;;;;;10.83;6.43;;;;;;;;;;5097338;28;20228;-72
2023/02/09 13:32:35;;;;;;;6.80;5.33;;;;;;;;;;5092667;28;20194;-73
2023/02/09 13:35:06;;;;;;;6.47;5.43;;;;;;;;;;5090396;28;20209;-73
2023/02/09 13:37:37;;;;;;;8.57;5.50;;;;;;;;;;5100191;28;20237;-71
2023/02/09 13:40:13;;;;;;;9.20;5.80;;;;;;;;;;5086707;28;20562;-71
2023/02/09 13:42:52;;;;;;;9.03;5.27;;;;;;;;;;5100611;28;20698;-72
2023/02/09 13:45:22;;;;;;;12.73;5.47;;;;;;;;;;5100499;28;20993;-72
2023/02/09 13:47:51;;;;;;;7.87;5.10;;;;;;;;;;5086817;28;20232;-72
2023/02/09 13:50:20;;;;;;;10.90;5.87;;;;;;;;;;5100594;28;20289;-72
2023/02/09 13:52:49;;;;;;;9.10;5.60;;;;;;;;;;5100465;28;20225;-72
2023/02/09 13:55:18;;;;;;;8.47;5.50;;;;;;;;;;5100674;28;20288;-72
2023/02/09 13:57:50;;;;;;;15.73;5.80;;;;;;;;;;5100561;28;20297;-72
2023/02/09 14:00:26;;;;;;;9.37;5.43;;;;;;;;;;5100455;28;20236;-72
2023/02/09 14:02:56;;;;;;;9.47;5.23;;;;;;;;;;5100438;28;20248;-72
2023/02/09 14:05:32;;;;;;;8.43;5.20;;;;;;;;;;5100509;28;20258;-72
2023/02/09 14:08:00;;;;;;;8.07;4.53;;;;;;;;;;5100437;28;20208;-73
2023/02/09 14:10:29;;;;;;;9.57;5.23;;;;;;;;;;5100131;28;20740;-72
2023/02/09 14:13:00;;;;;;;7.90;5.03;;;;;;;;;;5100254;28;20711;-72
2023/02/09 14:18:39;;;;;;;8.90;4.50;;;;;;;;;;5089660;28;20550;-72
2023/02/09 14:21:18;;;;;;;6.90;4.70;;;;;;;;;;5094936;28;20205;-72
2023/02/09 14:23:47;;;;;;;9.37;5.00;;;;;;;;;;5100093;28;20221;-72
2023/02/09 14:26:20;;;;;;;9.77;5.37;;;;;;;;;;5099934;28;20632;-72
2023/02/09 14:28:50;;;;;;;8.33;4.70;;;;;;;;;;5100086;28;20209;-72
2023/02/09 14:31:21;;;;;;;16.60;5.07;;;;;;;;;;5099884;28;20557;-72
2023/02/09 14:33:50;;;;;;;9.87;5.23;;;;;;;;;;5085783;28;20593;-72
2023/02/09 14:36:21;;;;;;;8.87;5.40;;;;;;;;;;5099107;28;20265;-72
2023/02/09 14:38:50;;;;;;;8.43;5.10;;;;;;;;;;5099680;28;20653;-72
2023/02/09 14:41:28;;;;;;;8.23;4.70;;;;;;;;;;5089975;28;20205;-72
2023/02/09 14:43:58;;;;;;;10.93;5.07;;;;;;;;;;5096985;28;20249;-72
2023/02/09 14:46:27;;;;;;;11.23;4.67;;;;;;;;;;5099316;28;20756;-71
2023/02/09 14:48:56;;;;;;;12.13;5.57;;;;;;;;;;5099578;28;20213;-71
2023/02/09 14:51:26;;;;;;;11.10;5.10;;;;;;;;;;5099023;28;20723;-72